Trammo Paris — 9V5470 — position and weather

sailwx.info

Track history (hours):
 
Tides and Currents Weather Stations Pressure Air Temp Water Temp Dewpoint Dewpoint Depression Visibility Wind Speed Wind Dir Waves Ship Positions

Trammo Paris

Last reported at 2018-May-26 01:07 UTC. Time now 2018-May-26 04:29 UTC.
Position N 37°39' E 008°36'.

Length 154 m; draft 6.6 m.

Type: Ship (hazmat cat D). MMSI: 563030090.

Date/timePositionNaut miles runAvg speedWind from/ knotsBaromVisibWave heightAir tempDewpointWater temp
2018-May-26 01:07N 37°39' E 008°36'213.9
2018-May-26 01:00N 37°39' E 008°38'1514.3
2018-May-25 23:57N 37°38' E 008°57'17513.1
2018-May-25 10:34N 36°53' E 012°29'111.8
2018-May-25 10:30N 36°53' E 012°30'611.7
2018-May-25 10:00N 36°52' E 012°38'611.9
2018-May-25 09:30N 36°50' E 012°45'4111.8
2018-May-25 06:03N 36°39' E 013°34'614.7
2018-May-25 05:39N 36°37' E 013°41'214.6
2018-May-25 05:30N 36°37' E 013°43'714.5
2018-May-25 05:00N 36°35' E 013°52'713.7
2018-May-25 04:30N 36°33' E 013°60'611.7
2018-May-25 04:00N 36°31' E 014°07'611.5
2018-May-25 03:30N 36°30' E 014°14'611.5
2018-May-25 03:00N 36°29' E 014°21'611.7
2018-May-25 02:30N 36°26' E 014°28'611.7
2018-May-25 02:00N 36°24' E 014°35'611.6
2018-May-25 01:30N 36°24' E 014°42'611.6
2018-May-25 01:00N 36°23' E 014°49'611.6
2018-May-25 00:30N 36°22' E 014°56'611.4
2018-May-25 00:00N 36°21' E 015°03'  
2018-May-20 01:11N 37°34' E 025°49'1 7.9
2018-May-20 01:00N 37°32' E 025°50'4 7.9
2018-May-20 00:30N 37°29' E 025°52'4 7.7
2018-May-20 00:00N 37°26' E 025°55'  
2018-May-16 02:19N 35°45' E 028°14'  
Track history (hours):
 
Tides and Currents Weather Stations Pressure Air Temp Water Temp Dewpoint Dewpoint Depression Visibility Wind Speed Wind Dir Waves Ship Positions

Trammo Paris

Last reported at 2018-May-26 01:07 UTC. Time now 2018-May-26 04:29 UTC.
Position N 37°39' E 008°36'.

Length 154 m; draft 6.6 m.

Type: Ship (hazmat cat D). MMSI: 563030090.

Date/timePositionNaut miles runAvg speedWind from/ knotsBaromVisibWave heightAir tempDewpointWater temp
2018-May-26 01:07N 37°39' E 008°36'213.9
2018-May-26 01:00N 37°39' E 008°38'1514.3
2018-May-25 23:57N 37°38' E 008°57'17513.1
2018-May-25 10:34N 36°53' E 012°29'111.8
2018-May-25 10:30N 36°53' E 012°30'611.7
2018-May-25 10:00N 36°52' E 012°38'611.9
2018-May-25 09:30N 36°50' E 012°45'4111.8
2018-May-25 06:03N 36°39' E 013°34'614.7
2018-May-25 05:39N 36°37' E 013°41'214.6
2018-May-25 05:30N 36°37' E 013°43'714.5
2018-May-25 05:00N 36°35' E 013°52'713.7
2018-May-25 04:30N 36°33' E 013°60'611.7
2018-May-25 04:00N 36°31' E 014°07'611.5
2018-May-25 03:30N 36°30' E 014°14'611.5
2018-May-25 03:00N 36°29' E 014°21'611.7
2018-May-25 02:30N 36°26' E 014°28'611.7
2018-May-25 02:00N 36°24' E 014°35'611.6
2018-May-25 01:30N 36°24' E 014°42'611.6
2018-May-25 01:00N 36°23' E 014°49'611.6
2018-May-25 00:30N 36°22' E 014°56'611.4
2018-May-25 00:00N 36°21' E 015°03'  
2018-May-20 01:11N 37°34' E 025°49'1 7.9
2018-May-20 01:00N 37°32' E 025°50'4 7.9
2018-May-20 00:30N 37°29' E 025°52'4 7.7
2018-May-20 00:00N 37°26' E 025°55'  
2018-May-16 02:19N 35°45' E 028°14'  

Dump ship's entire track history